Astoria Regional Airport
KAST : now visible

Airfield :











YOU CAN JOIN US ON...

 
LOGIN :

Register | Disclaimer

   EN    FR    IT 

 









Legend :    VFR   Marginal VFR   IFR   Intensive IFR   Very Intensive IFR
Visi :
Ceiling :
>= 8 km
>= 3000ft
5 to 8 km
1000 to 3000 ft
1500m to 5 km
500 to 1000 ft
800 to 1500m
200 to 500 ft
< 800m
< 200 ft
Symbols :   Thunderstorms  Fog  Heavy snow  Heavy precipitations  Wind > 20 kt






- Airport Elevation : 15 ft


KAST - Astoria Regional

CURRENT METAR :
  • 231855Z AUTO 35005KT 10SM CLR 11/06 A3028 RMK AO2 SLP254 T01110061 $

EXPIRED METARs :
  • 231755Z AUTO 07004KT 10SM CLR 09/07 A3030 RMK AO2 SLP261 T00940067 10094 20028 58002 $
  • 231655Z AUTO 07006KT 10SM CLR 07/06 A3031 RMK AO2 SLP263 T00670056 $
  • 231555Z AUTO 10003KT 8SM CLR 03/03 A3031 RMK AO2 SLP265 T00330033 $
  • 231455Z AUTO 08005KT 10SM CLR 03/02 A3031 RMK AO2 SLP263 T00330022 53002 $

TAF KAST
Valid from the 23 at 18:00 until the 24 at 18:00 UTC


231732Z 2318/2418 07007KT P6SM FEW200
FM232300 34004KT P6SM FEW250
FM240800 VRB04KT P6SM FEW015 BKN025
KZSE FIR / North America



MET'MAP, your aeronautical weather chart ! - Copyright ORBIFLY December 2007 - Disclaimer

ORBIFLY MET'MAP TEAM :

Programming & Development : Alexandra Zaïnal
Original concept : Baudouin d'Aumeries
Technical & hardware support : Manuel Goepfert
Assistance : Marc-Olivier Méhu




SOURCES & CREDITS :

   NOAA       Earth
Advisory